Time;durP1;ratioP1;P1;durP2;ratioP2;P2;SDS_P1;SDS_P2;PMS_P1;PMS_P2;Temp;Humidity;BMP_temperature;BMP_pressure;BME280_temperature;BME280_humidity;BME280_pressure;Samples;Min_cycle;Max_cycle;Signal;HPM_P1;HPM_P2
2024/03/19 00:05:29;;;;;;;102.68;69.88;;;12.40;99.90;;;;;;6183934;22;20016;-65
2024/03/19 00:08:54;;;;;;;97.72;68.00;;;12.40;99.90;;;;;;6329775;22;19996;-66
2024/03/19 00:11:20;;;;;;;101.50;67.05;;;12.40;99.90;;;;;;6259093;22;20011;-66
2024/03/19 00:13:46;;;;;;;99.53;67.88;;;12.40;99.90;;;;;;6338034;22;19999;-66
2024/03/19 00:16:12;;;;;;;94.35;64.45;;;12.40;99.90;;;;;;6337935;22;20058;-65
2024/03/19 00:18:38;;;;;;;98.40;64.35;;;12.40;99.90;;;;;;6338165;22;19995;-66
2024/03/19 00:21:04;;;;;;;85.45;59.03;;;12.40;99.90;;;;;;6338694;22;20046;-65
2024/03/19 00:23:30;;;;;;;83.63;59.22;;;12.40;99.90;;;;;;6340368;22;20328;-66
2024/03/19 00:25:56;;;;;;;99.63;63.15;;;12.30;99.90;;;;;;6339533;22;20025;-65
2024/03/19 00:28:22;;;;;;;106.13;62.03;;;12.30;99.90;;;;;;6339909;22;20558;-66
2024/03/19 00:30:49;;;;;;;132.25;61.88;;;12.20;99.90;;;;;;6339749;22;20005;-65
2024/03/19 00:33:15;;;;;;;116.38;59.40;;;12.20;99.90;;;;;;6339814;22;20124;-66
2024/03/19 00:35:42;;;;;;;112.68;61.13;;;12.10;99.90;;;;;;6312131;22;20010;-65
2024/03/19 00:38:08;;;;;;;119.72;62.20;;;12.00;99.90;;;;;;6339738;22;20294;-65
2024/03/19 00:40:35;;;;;;;94.57;60.58;;;12.00;99.90;;;;;;6340025;22;20011;-65
2024/03/19 00:43:03;;;;;;;130.25;57.90;;;12.00;99.90;;;;;;6340020;22;20026;-65
2024/03/19 00:45:29;;;;;;;111.13;55.15;;;12.00;99.90;;;;;;6339824;22;20425;-65
2024/03/19 00:47:55;;;;;;;75.32;55.28;;;12.00;99.90;;;;;;6339972;22;20388;-66
2024/03/19 00:50:21;;;;;;;76.10;52.75;;;11.90;99.90;;;;;;6339513;22;20069;-65
2024/03/19 00:52:47;;;;;;;114.82;54.90;;;11.90;99.90;;;;;;6339722;22;19999;-65
2024/03/19 00:55:13;;;;;;;156.20;54.40;;;11.90;99.90;;;;;;6339932;22;20452;-65
2024/03/19 00:57:39;;;;;;;251.40;57.20;;;11.90;99.90;;;;;;6339822;22;20013;-66
2024/03/19 01:00:14;;;;;;;286.98;55.67;;;11.80;99.90;;;;;;6339495;22;20371;-66
2024/03/19 01:02:40;;;;;;;125.25;52.47;;;11.70;99.90;;;;;;6339814;22;20041;-66
2024/03/19 01:05:09;;;;;;;139.15;52.30;;;11.70;99.90;;;;;;6339778;22;20007;-65
2024/03/19 01:07:38;;;;;;;289.20;56.53;;;11.60;99.90;;;;;;6339653;22;20023;-65
2024/03/19 01:10:07;;;;;;;158.00;52.95;;;11.60;99.90;;;;;;6339728;22;19998;-65
2024/03/19 01:12:36;;;;;;;174.82;53.00;;;11.60;99.90;;;;;;6339724;22;20013;-65
2024/03/19 01:15:02;;;;;;;408.10;60.30;;;11.50;99.90;;;;;;6340694;22;20306;-65
2024/03/19 01:17:28;;;;;;;251.82;57.53;;;11.50;99.90;;;;;;6340521;22;20081;-65
2024/03/19 01:19:54;;;;;;;291.75;56.00;;;11.50;99.90;;;;;;6340235;22;20390;-65
2024/03/19 01:34:02;;;;;;;82.30;47.15;;;11.40;99.90;;;;;;6037887;23;20095;-65
2024/03/19 01:46:20;;;;;;;;;;;11.20;99.90;;;;;;5942310;23;20022;-65
2024/03/19 01:48:46;;;;;;;68.18;37.65;;;11.10;99.90;;;;;;6173611;23;19900;-65
2024/03/19 01:51:12;;;;;;;54.13;38.47;;;11.10;99.90;;;;;;6256204;22;20357;-66
2024/03/19 01:53:38;;;;;;;66.65;40.30;;;11.10;99.90;;;;;;6339131;22;20412;-65
2024/03/19 01:56:06;;;;;;;70.03;43.63;;;11.00;99.90;;;;;;6339629;22;20321;-65
2024/03/19 01:58:33;;;;;;;85.28;44.70;;;11.00;99.90;;;;;;6337174;22;20405;-65
2024/03/19 02:00:59;;;;;;;63.72;40.95;;;11.00;99.90;;;;;;6335284;22;20434;-65
2024/03/19 02:03:25;;;;;;;45.63;39.05;;;11.00;99.90;;;;;;6335567;22;20001;-65
2024/03/19 02:05:50;;;;;;;88.18;44.95;;;10.90;99.90;;;;;;6338273;22;20037;-65
2024/03/19 02:08:16;;;;;;;48.28;41.50;;;10.90;99.90;;;;;;6339027;22;20005;-65
2024/03/19 02:10:43;;;;;;;55.60;42.17;;;10.90;99.90;;;;;;6339014;22;19999;-65
2024/03/19 02:13:09;;;;;;;62.22;41.25;;;10.90;99.90;;;;;;6338881;22;20007;-65
2024/03/19 02:15:35;;;;;;;53.97;39.92;;;10.80;99.90;;;;;;6338808;22;19999;-66
2024/03/19 02:18:01;;;;;;;90.32;36.50;;;10.80;99.90;;;;;;6337588;22;20007;-65
2024/03/19 02:20:27;;;;;;;101.22;36.25;;;10.90;99.90;;;;;;6338414;22;20015;-66
2024/03/19 02:22:53;;;;;;;58.53;36.83;;;10.80;99.90;;;;;;6338486;22;20009;-65
2024/03/19 02:25:19;;;;;;;92.00;36.40;;;10.80;99.90;;;;;;6338489;22;20033;-65
2024/03/19 02:27:46;;;;;;;85.50;36.13;;;10.70;99.90;;;;;;6338437;22;20081;-65
2024/03/19 02:30:12;;;;;;;130.27;34.78;;;10.70;99.90;;;;;;6338738;22;20033;-65
2024/03/19 02:32:39;;;;;;;103.70;35.53;;;10.70;99.90;;;;;;6338564;22;19995;-65
2024/03/19 02:35:06;;;;;;;68.72;32.90;;;10.70;99.90;;;;;;6338355;22;20002;-66
2024/03/19 02:37:31;;;;;;;85.40;36.42;;;10.60;99.90;;;;;;6338799;22;20329;-65
2024/03/19 02:39:59;;;;;;;95.90;37.28;;;10.60;99.90;;;;;;6338690;22;20077;-65
2024/03/19 02:42:25;;;;;;;130.00;38.08;;;10.50;99.90;;;;;;6338374;22;20486;-65
2024/03/19 02:44:51;;;;;;;72.60;36.13;;;10.50;99.90;;;;;;6338367;22;20029;-65
2024/03/19 02:47:17;;;;;;;108.10;37.78;;;10.50;99.90;;;;;;6339522;22;19999;-65
2024/03/19 02:49:43;;;;;;;75.15;36.83;;;10.50;99.90;;;;;;6339691;22;20048;-65
2024/03/19 02:52:10;;;;;;;58.53;35.33;;;10.40;99.90;;;;;;6339486;22;20128;-65
2024/03/19 02:54:37;;;;;;;98.80;36.22;;;10.40;99.90;;;;;;6339894;22;20306;-65
2024/03/19 02:57:04;;;;;;;198.10;38.25;;;10.40;99.90;;;;;;6339315;22;20357;-65
2024/03/19 03:07:28;;;;;;;312.15;40.42;;;10.30;99.90;;;;;;6123568;23;20018;-65
2024/03/19 03:17:46;;;;;;;233.27;36.83;;;10.20;99.90;;;;;;6008979;23;20079;-65
2024/03/19 03:23:50;;;;;;;125.15;35.60;;;10.10;99.90;;;;;;6072718;23;20118;-65
2024/03/19 03:26:16;;;;;;;128.93;37.40;;;10.10;99.90;;;;;;6176129;23;20092;-65
2024/03/19 03:28:42;;;;;;;113.70;35.92;;;10.00;99.90;;;;;;6319318;22;20003;-65
2024/03/19 03:31:07;;;;;;;65.82;33.38;;;10.00;99.90;;;;;;6338437;22;20103;-65
2024/03/19 03:33:33;;;;;;;69.33;33.73;;;10.00;99.90;;;;;;6338162;22;20002;-65
2024/03/19 03:35:59;;;;;;;72.43;34.13;;;10.00;99.90;;;;;;6338307;22;20007;-72
2024/03/19 03:38:25;;;;;;;61.67;34.22;;;10.00;99.90;;;;;;6338112;22;20020;-66
2024/03/19 03:40:53;;;;;;;70.25;32.78;;;10.00;99.90;;;;;;6338110;22;19999;-66
2024/03/19 03:43:20;;;;;;;83.20;32.17;;;10.00;99.90;;;;;;6338351;22;20014;-66
2024/03/19 03:45:46;;;;;;;34.80;29.40;;;9.90;99.90;;;;;;6338498;22;20002;-65
2024/03/19 03:48:11;;;;;;;51.67;30.35;;;10.00;99.90;;;;;;6338394;22;20003;-65
2024/03/19 03:50:37;;;;;;;44.85;30.55;;;9.90;99.90;;;;;;6310770;22;20026;-65
2024/03/19 03:53:03;;;;;;;34.30;30.63;;;9.90;99.90;;;;;;6338220;22;19999;-65
2024/03/19 03:55:29;;;;;;;34.17;30.67;;;9.90;99.90;;;;;;6339125;22;20011;-65
2024/03/19 03:57:55;;;;;;;33.00;29.60;;;9.90;99.90;;;;;;6340045;22;19999;-66
2024/03/19 04:00:20;;;;;;;34.23;28.93;;;9.90;99.90;;;;;;6340027;22;20006;-66
2024/03/19 04:02:48;;;;;;;32.33;28.92;;;9.80;99.90;;;;;;6339860;22;20003;-65
2024/03/19 04:05:14;;;;;;;32.85;29.38;;;9.80;99.90;;;;;;6340001;22;20002;-65
2024/03/19 04:07:42;;;;;;;35.73;28.73;;;9.80;99.90;;;;;;6340019;22;20003;-65
2024/03/19 04:10:10;;;;;;;30.40;26.90;;;9.80;99.90;;;;;;6340341;22;20416;-65
2024/03/19 04:12:36;;;;;;;28.08;25.15;;;9.80;99.90;;;;;;6339959;22;19995;-65
2024/03/19 04:15:03;;;;;;;25.77;23.13;;;9.80;99.90;;;;;;6340073;22;19999;-65
2024/03/19 04:17:29;;;;;;;28.67;25.58;;;9.80;99.90;;;;;;6340187;22;20124;-65
2024/03/19 04:19:55;;;;;;;30.33;27.13;;;9.80;99.90;;;;;;6339455;22;20068;-65
2024/03/19 04:22:21;;;;;;;36.78;29.92;;;9.80;99.90;;;;;;6339061;22;20019;-65
2024/03/19 04:24:49;;;;;;;27.60;24.70;;;9.80;99.90;;;;;;6339987;22;19995;-65
2024/03/19 04:27:15;;;;;;;25.92;23.23;;;9.80;99.90;;;;;;6313117;22;20045;-65
2024/03/19 04:29:41;;;;;;;26.67;23.98;;;9.90;99.90;;;;;;6340655;22;20332;-65
2024/03/19 04:32:07;;;;;;;25.67;22.88;;;9.80;99.90;;;;;;6339475;22;20018;-65
2024/03/19 04:34:42;;;;;;;24.80;22.30;;;9.80;99.90;;;;;;6326617;22;20432;-65
2024/03/19 04:41:04;;;;;;;29.48;26.42;;;9.80;99.90;;;;;;6339478;22;20014;-65
2024/03/19 04:54:07;;;;;;;35.55;25.67;;;9.60;99.90;;;;;;6244749;23;20473;-65
2024/03/19 05:00:09;;;;;;;29.27;26.17;;;9.50;99.90;;;;;;6102001;23;20014;-64
2024/03/19 05:02:35;;;;;;;31.10;27.17;;;9.40;99.90;;;;;;6125094;23;20408;-65
2024/03/19 05:05:02;;;;;;;30.43;26.60;;;9.40;99.90;;;;;;6167718;23;20012;-65
2024/03/19 05:07:28;;;;;;;28.97;25.97;;;9.40;99.90;;;;;;6255815;22;20018;-65
2024/03/19 05:09:55;;;;;;;27.13;24.33;;;9.40;99.90;;;;;;6339733;22;20429;-65
2024/03/19 05:12:21;;;;;;;27.50;24.60;;;9.30;99.90;;;;;;6339388;22;19995;-65
2024/03/19 05:14:46;;;;;;;28.20;25.13;;;9.30;99.90;;;;;;6339408;22;20481;-65
2024/03/19 05:17:13;;;;;;;27.40;24.50;;;9.30;99.90;;;;;;6339629;22;19999;-65
2024/03/19 05:19:39;;;;;;;27.63;23.93;;;9.30;99.90;;;;;;6339540;22;20095;-65
2024/03/19 05:22:05;;;;;;;26.07;23.27;;;9.30;99.90;;;;;;6339479;22;20085;-65
2024/03/19 05:24:30;;;;;;;26.20;23.40;;;9.30;99.90;;;;;;6339647;22;20007;-66
2024/03/19 05:26:57;;;;;;;26.03;23.23;;;9.30;99.90;;;;;;6339113;22;20052;-65
2024/03/19 05:29:22;;;;;;;23.40;20.90;;;9.40;99.90;;;;;;6339181;22;20324;-65
2024/03/19 05:31:48;;;;;;;22.23;20.03;;;9.30;99.90;;;;;;6338752;22;20066;-65
2024/03/19 05:34:14;;;;;;;22.13;19.93;;;9.30;99.90;;;;;;6311489;22;20045;-65
2024/03/19 05:36:40;;;;;;;21.03;18.97;;;9.30;99.90;;;;;;6339426;22;20007;-65
2024/03/19 05:39:11;;;;;;;22.07;19.87;;;9.30;99.90;;;;;;6339345;22;20006;-65
2024/03/19 05:41:37;;;;;;;22.37;20.07;;;9.30;99.90;;;;;;6327487;22;20013;-65
2024/03/19 05:44:03;;;;;;;24.67;21.97;;;9.30;99.90;;;;;;6339259;22;20002;-65
2024/03/19 05:46:30;;;;;;;25.37;21.27;;;9.30;99.90;;;;;;6339261;22;20074;-65
2024/03/19 05:48:55;;;;;;;23.90;21.27;;;9.30;99.90;;;;;;6338395;22;20002;-65
2024/03/19 05:51:21;;;;;;;28.47;22.33;;;9.30;99.90;;;;;;6338622;22;20030;-65
2024/03/19 05:53:47;;;;;;;24.67;22.07;;;9.30;99.90;;;;;;6338878;22;20002;-65
2024/03/19 05:56:13;;;;;;;28.17;22.90;;;9.30;99.90;;;;;;6338643;22;20305;-65
2024/03/19 05:58:39;;;;;;;25.77;22.03;;;9.30;99.90;;;;;;6338816;22;19999;-65
2024/03/19 06:01:04;;;;;;;25.73;21.57;;;9.30;99.90;;;;;;6339123;22;20077;-65
2024/03/19 06:03:32;;;;;;;26.67;21.43;;;9.30;99.90;;;;;;6340002;22;20003;-65
2024/03/19 06:06:31;;;;;;;28.13;23.53;;;9.40;99.90;;;;;;6312283;22;20011;-65
2024/03/19 06:08:50;;;;;;;29.60;24.17;;;9.40;99.90;;;;;;6334030;22;20081;-64
2024/03/19 06:11:16;;;;;;;27.67;24.30;;;9.40;99.90;;;;;;6339786;22;20023;-64
2024/03/19 06:14:27;;;;;;;27.43;23.97;;;9.40;99.90;;;;;;6339985;22;20416;-65
2024/03/19 06:33:33;;;;;;;26.77;19.63;;;9.80;99.90;;;;;;6338900;22;20412;-65
2024/03/19 06:39:09;;;;;;;24.70;16.33;;;10.00;99.90;;;;;;6325758;22;20017;-65
2024/03/19 06:41:35;;;;;;;21.20;15.18;;;10.10;99.90;;;;;;6326579;22;20383;-65
2024/03/19 06:44:01;;;;;;;22.30;15.23;;;10.20;99.90;;;;;;6338865;22;19994;-66
2024/03/19 06:46:27;;;;;;;16.60;13.98;;;10.20;99.90;;;;;;6338974;22;20006;-65
2024/03/19 06:48:53;;;;;;;20.30;13.90;;;10.30;99.90;;;;;;6338714;22;20325;-66
2024/03/19 06:51:19;;;;;;;20.65;13.90;;;10.40;99.90;;;;;;6338787;22;20378;-65
2024/03/19 06:53:45;;;;;;;21.70;12.85;;;10.50;99.90;;;;;;6338391;22;19995;-66
2024/03/19 06:56:11;;;;;;;15.50;12.13;;;10.60;99.90;;;;;;6338862;22;20302;-65
2024/03/19 06:58:37;;;;;;;17.45;12.05;;;10.70;99.90;;;;;;6338979;22;20010;-66
2024/03/19 07:01:03;;;;;;;17.10;11.77;;;10.80;99.90;;;;;;6338736;22;20019;-65
2024/03/19 07:03:29;;;;;;;18.58;11.38;;;10.80;99.90;;;;;;6338200;22;20006;-65
2024/03/19 07:05:56;;;;;;;15.73;12.07;;;10.90;99.90;;;;;;6338650;22;19999;-65
2024/03/19 07:08:22;;;;;;;16.02;10.52;;;11.00;99.90;;;;;;6338574;22;20417;-65
2024/03/19 07:10:48;;;;;;;15.48;11.65;;;11.00;99.90;;;;;;6338940;22;20010;-65
2024/03/19 07:13:14;;;;;;;18.60;10.02;;;11.10;99.90;;;;;;6338415;22;20013;-65
2024/03/19 07:15:40;;;;;;;18.63;11.15;;;11.20;99.90;;;;;;6338570;22;20052;-65
2024/03/19 07:18:08;;;;;;;14.93;10.50;;;11.30;99.90;;;;;;6338339;22;20029;-65
2024/03/19 07:20:35;;;;;;;17.08;10.05;;;11.30;99.90;;;;;;6337967;22;20061;-65
2024/03/19 07:23:05;;;;;;;20.45;10.70;;;11.40;99.90;;;;;;6338531;22;20007;-66
2024/03/19 07:25:34;;;;;;;16.35;9.77;;;11.40;99.90;;;;;;6338595;22;20069;-65
2024/03/19 07:28:01;;;;;;;17.48;10.02;;;11.50;99.90;;;;;;6338241;22;19999;-65
2024/03/19 07:30:26;;;;;;;14.02;9.35;;;11.50;99.90;;;;;;6310571;22;20090;-65
2024/03/19 07:32:55;;;;;;;17.92;8.95;;;11.60;99.90;;;;;;6338538;22;20023;-65
2024/03/19 07:35:21;;;;;;;14.50;8.75;;;11.70;99.90;;;;;;6338562;22;20011;-65
2024/03/19 07:37:49;;;;;;;14.82;8.35;;;11.70;99.90;;;;;;6338324;22;20055;-65
2024/03/19 07:40:15;;;;;;;14.63;8.18;;;11.90;99.90;;;;;;6338082;22;20425;-65
2024/03/19 07:42:41;;;;;;;15.43;8.10;;;11.90;99.90;;;;;;6338555;22;20015;-65
2024/03/19 07:45:07;;;;;;;12.43;7.68;;;12.00;99.90;;;;;;6338842;22;20005;-66
2024/03/19 07:47:34;;;;;;;9.68;7.50;;;12.00;99.90;;;;;;6338937;22;20006;-65
2024/03/19 07:50:17;;;;;;;;;;;;;;;;;;;;;
2024/03/19 07:53:11;;;;;;;13.38;7.38;;;12.20;99.90;;;;;;6332164;22;20369;-65
2024/03/19 07:56:19;;;;;;;;;;;;;;;;;;;;;
2024/03/19 07:58:48;;;;;;;12.10;7.20;;;12.30;99.90;;;;;;6337977;22;20078;-65
2024/03/19 08:05:28;;;;;;;11.52;6.40;;;12.50;99.90;;;;;;6204090;23;20551;-65
2024/03/19 08:08:23;;;;;;;;;;;;;;;;;;;;;
2024/03/19 08:11:25;;;;;;;8.52;6.18;;;12.70;99.90;;;;;;6338161;22;20090;-65
2024/03/19 08:14:16;;;;;;;9.35;6.25;;;12.80;99.90;;;;;;6277103;22;20007;-65
2024/03/19 08:16:42;;;;;;;13.65;6.05;;;12.80;99.90;;;;;;6337723;22;20400;-65
2024/03/19 08:19:08;;;;;;;11.93;5.90;;;12.90;99.90;;;;;;6337945;22;20375;-65
2024/03/19 08:21:38;;;;;;;12.20;6.70;;;12.90;99.90;;;;;;6337785;22;20337;-65
2024/03/19 08:24:04;;;;;;;10.30;5.72;;;13.00;99.90;;;;;;6310569;22;20031;-65
2024/03/19 08:26:33;;;;;;;9.88;5.68;;;13.00;99.90;;;;;;6338444;22;20044;-65
2024/03/19 08:29:00;;;;;;;11.88;5.47;;;13.10;99.90;;;;;;6310732;22;20318;-65
2024/03/19 08:31:27;;;;;;;12.77;5.35;;;13.20;99.90;;;;;;6338341;22;20403;-65
2024/03/19 08:33:53;;;;;;;8.27;5.30;;;13.20;99.90;;;;;;6337898;22;20084;-66
2024/03/19 08:36:18;;;;;;;7.50;4.95;;;13.20;99.90;;;;;;6338082;22;20062;-65
2024/03/19 08:38:44;;;;;;;9.52;4.78;;;13.20;99.90;;;;;;6338049;22;20009;-66
2024/03/19 08:41:10;;;;;;;9.93;5.15;;;13.30;99.90;;;;;;6338048;22;20010;-65
2024/03/19 08:43:35;;;;;;;9.63;4.97;;;13.30;99.90;;;;;;6339717;22;19994;-65
2024/03/19 08:46:01;;;;;;;9.18;5.55;;;13.30;99.90;;;;;;6338909;22;20074;-65
2024/03/19 08:48:27;;;;;;;11.02;5.68;;;13.40;99.90;;;;;;6340070;22;19999;-65
2024/03/19 08:50:53;;;;;;;12.73;5.35;;;13.40;99.90;;;;;;6339760;22;20005;-65
2024/03/19 08:53:19;;;;;;;12.30;4.80;;;13.50;99.90;;;;;;6339855;22;20027;-65
2024/03/19 08:55:55;;;;;;;9.30;5.45;;;13.50;99.90;;;;;;6339737;22;20421;-65
2024/03/19 08:58:21;;;;;;;10.88;5.15;;;13.60;99.90;;;;;;6339262;22;20037;-65
2024/03/19 09:00:47;;;;;;;7.28;5.18;;;13.60;99.90;;;;;;6339857;22;20447;-65
2024/03/19 09:03:13;;;;;;;6.38;4.35;;;13.70;99.90;;;;;;6339970;22;20066;-65
2024/03/19 09:05:39;;;;;;;6.75;4.55;;;13.70;99.90;;;;;;6339606;22;20069;-66
2024/03/19 09:08:05;;;;;;;11.05;4.75;;;13.80;99.90;;;;;;6312473;22;20045;-65
2024/03/19 09:10:30;;;;;;;8.18;5.00;;;13.90;99.90;;;;;;6339960;22;20011;-65
2024/03/19 09:12:56;;;;;;;10.57;4.78;;;13.90;99.90;;;;;;6339544;22;20302;-65
2024/03/19 09:15:24;;;;;;;11.23;4.82;;;13.90;99.90;;;;;;6339502;22;20325;-65
2024/03/19 09:17:50;;;;;;;6.22;4.95;;;13.90;99.90;;;;;;6339755;22;19999;-66
2024/03/19 09:20:16;;;;;;;7.63;4.60;;;14.00;99.90;;;;;;6339924;22;20013;-65
2024/03/19 09:22:42;;;;;;;5.93;4.13;;;14.00;99.90;;;;;;6340292;22;19999;-65
2024/03/19 09:25:09;;;;;;;8.88;4.38;;;14.10;99.90;;;;;;6340006;22;19998;-65
2024/03/19 09:27:39;;;;;;;6.60;4.45;;;14.10;99.90;;;;;;6340052;22;20013;-66
2024/03/19 09:31:11;;;;;;;5.75;3.78;;;14.20;99.90;;;;;;6339803;22;20007;-65
2024/03/19 09:33:53;;;;;;;9.57;4.55;;;14.30;99.90;;;;;;6183670;23;20009;-65
2024/03/19 09:36:33;;;;;;;7.72;4.60;;;14.40;99.90;;;;;;6184381;23;20075;-66
2024/03/19 09:49:36;;;;;;;9.88;3.90;;;14.70;99.90;;;;;;6008069;23;20423;-65
2024/03/19 09:53:20;;;;;;;;;;;;;;;;;;;;;
2024/03/19 09:55:47;;;;;;;7.25;3.30;;;14.80;99.90;;;;;;5995280;23;20095;-65
2024/03/19 09:58:14;;;;;;;4.88;3.20;;;14.90;99.50;;;;;;6095066;23;20108;-65
2024/03/19 10:00:46;;;;;;;3.78;2.72;;;14.90;99.30;;;;;;6274646;22;20045;-65
2024/03/19 10:03:13;;;;;;;5.35;3.15;;;15.00;98.90;;;;;;6339335;22;20003;-65
2024/03/19 10:05:38;;;;;;;6.97;3.13;;;15.00;98.20;;;;;;6339576;22;19995;-65
2024/03/19 10:08:06;;;;;;;3.88;3.00;;;15.10;98.20;;;;;;6339287;22;20010;-65
2024/03/19 10:10:32;;;;;;;4.47;2.90;;;15.10;97.70;;;;;;6339323;22;20088;-65
2024/03/19 10:12:59;;;;;;;5.35;3.67;;;15.20;97.90;;;;;;6339052;22;20421;-65
2024/03/19 10:15:25;;;;;;;10.18;3.13;;;15.30;98.80;;;;;;6339199;22;20306;-65
2024/03/19 10:17:51;;;;;;;8.15;2.92;;;15.40;97.10;;;;;;6339214;22;20002;-66
2024/03/19 10:20:18;;;;;;;4.72;3.38;;;15.40;97.00;;;;;;6338860;22;20422;-65
2024/03/19 10:22:45;;;;;;;5.72;3.05;;;15.40;97.60;;;;;;6339029;22;20429;-65
2024/03/19 10:25:15;;;;;;;5.53;3.38;;;15.40;96.10;;;;;;6338665;22;20498;-65
2024/03/19 10:27:44;;;;;;;6.22;3.10;;;15.50;96.00;;;;;;6338791;22;20505;-65
2024/03/19 10:30:15;;;;;;;5.20;3.20;;;15.50;96.60;;;;;;6339080;22;20010;-66
2024/03/19 10:32:42;;;;;;;4.30;2.75;;;15.50;95.70;;;;;;6338848;22;20377;-66
2024/03/19 10:35:24;;;;;;;6.35;3.40;;;15.50;96.20;;;;;;6338994;22;20079;-65
2024/03/19 10:37:53;;;;;;;5.55;2.90;;;15.50;95.00;;;;;;6338549;22;20014;-65
2024/03/19 10:40:21;;;;;;;4.72;3.00;;;15.50;94.60;;;;;;6338266;22;20002;-65
2024/03/19 10:42:49;;;;;;;4.20;2.65;;;15.50;94.40;;;;;;6338988;22;20302;-65
2024/03/19 10:45:18;;;;;;;6.38;2.88;;;15.40;94.70;;;;;;6339070;22;19999;-65
2024/03/19 10:47:45;;;;;;;4.78;3.08;;;15.40;94.10;;;;;;6339094;22;20011;-66
2024/03/19 10:50:14;;;;;;;5.35;3.22;;;15.30;94.10;;;;;;6339237;22;20011;-65
2024/03/19 10:52:49;;;;;;;7.07;2.90;;;15.40;94.40;;;;;;6338563;22;20009;-65
2024/03/19 10:55:16;;;;;;;4.97;3.08;;;15.40;95.10;;;;;;6338651;22;20081;-65
2024/03/19 10:57:46;;;;;;;5.07;3.10;;;15.50;95.30;;;;;;6338991;22;20003;-65
2024/03/19 11:00:23;;;;;;;3.60;2.60;;;15.50;93.80;;;;;;6339593;22;20383;-66
2024/03/19 11:02:50;;;;;;;5.78;3.10;;;15.60;94.90;;;;;;6339608;22;20382;-65
2024/03/19 11:05:20;;;;;;;9.20;3.42;;;15.60;94.20;;;;;;6338971;22;20052;-67
2024/03/19 11:18:55;;;;;;;4.32;2.60;;;15.70;93.80;;;;;;6271040;22;20206;-65
2024/03/19 11:21:22;;;;;;;5.65;3.33;;;15.70;93.50;;;;;;6306791;22;20023;-65
2024/03/19 11:23:51;;;;;;;4.28;2.88;;;15.60;93.90;;;;;;6307089;22;20072;-66
2024/03/19 11:26:17;;;;;;;7.07;3.08;;;15.60;93.10;;;;;;6307107;22;20000;-65
2024/03/19 11:29:01;;;;;;;10.13;4.05;;;15.60;93.70;;;;;;6307296;22;20006;-65
2024/03/19 11:31:40;;;;;;;7.75;3.05;;;15.60;93.30;;;;;;6306911;22;19999;-65
2024/03/19 11:34:12;;;;;;;8.45;3.10;;;15.70;94.50;;;;;;6306907;22;20004;-66
2024/03/19 11:36:38;;;;;;;;;;;15.80;94.10;;;;;;6307477;22;20049;-66
2024/03/19 11:39:07;;;;;;;5.55;3.20;;;15.90;94.20;;;;;;6306987;22;19903;-65
2024/03/19 11:41:32;;;;;;;4.63;3.03;;;15.90;93.60;;;;;;6307279;22;20015;-66
2024/03/19 11:43:59;;;;;;;8.20;3.65;;;15.90;92.90;;;;;;6306884;22;20078;-67
2024/03/19 11:46:25;;;;;;;5.03;2.70;;;16.00;93.20;;;;;;6307056;22;20003;-65
2024/03/19 11:48:51;;;;;;;7.20;2.90;;;16.00;93.20;;;;;;6306977;22;19995;-66
2024/03/19 11:51:17;;;;;;;5.93;3.00;;;16.00;93.50;;;;;;6306600;22;20006;-65
2024/03/19 11:53:42;;;;;;;10.93;3.17;;;16.00;92.50;;;;;;6306583;22;20003;-65
2024/03/19 11:56:11;;;;;;;9.93;3.30;;;16.00;91.20;;;;;;6307047;22;20034;-65
2024/03/19 11:58:39;;;;;;;5.22;3.05;;;16.00;91.30;;;;;;6307087;22;19995;-65
2024/03/19 12:01:10;;;;;;;6.40;3.22;;;16.00;90.90;;;;;;6306854;22;20021;-65
2024/03/19 12:03:37;;;;;;;3.72;2.85;;;16.00;90.40;;;;;;6307019;22;20086;-65
2024/03/19 12:06:05;;;;;;;6.32;3.20;;;16.00;91.80;;;;;;6307247;22;20440;-65
2024/03/19 12:08:31;;;;;;;6.05;3.00;;;16.20;91.80;;;;;;6306912;22;19995;-64
2024/03/19 12:11:04;;;;;;;7.10;2.88;;;16.20;90.20;;;;;;6307148;22;20384;-66
2024/03/19 12:13:31;;;;;;;5.47;2.95;;;16.40;91.50;;;;;;6307425;22;20020;-65
2024/03/19 12:15:57;;;;;;;5.60;2.90;;;16.60;90.80;;;;;;6306732;22;20057;-65
2024/03/19 12:18:23;;;;;;;6.03;3.10;;;16.70;90.10;;;;;;6308327;22;20015;-64
2024/03/19 12:20:48;;;;;;;7.32;2.75;;;16.80;89.50;;;;;;6308622;22;20009;-65
2024/03/19 12:23:14;;;;;;;6.15;3.25;;;16.90;90.80;;;;;;6309123;22;20003;-65
2024/03/19 12:25:40;;;;;;;5.70;2.95;;;17.00;86.60;;;;;;6309599;22;20022;-65
2024/03/19 12:28:18;;;;;;;5.03;2.72;;;17.10;87.60;;;;;;6309276;22;19999;-65
2024/03/19 12:30:46;;;;;;;4.35;3.35;;;17.10;85.80;;;;;;6309384;22;20003;-65
2024/03/19 12:34:03;;;;;;;4.35;2.83;;;17.10;85.50;;;;;;6309270;22;20026;-65
2024/03/19 12:47:22;;;;;;;3.80;2.90;;;17.40;82.40;;;;;;6038414;23;20008;-65
2024/03/19 12:53:15;;;;;;;4.25;2.50;;;17.50;81.50;;;;;;6010167;23;20494;-65
2024/03/19 12:55:47;;;;;;;5.20;2.83;;;17.60;84.30;;;;;;6154348;23;20018;-64
2024/03/19 12:58:26;;;;;;;4.87;2.90;;;17.60;81.80;;;;;;6154201;23;20016;-64
2024/03/19 13:00:52;;;;;;;9.30;3.00;;;17.70;81.80;;;;;;6154186;23;20345;-65
2024/03/19 13:03:18;;;;;;;5.47;2.70;;;17.80;80.70;;;;;;6187025;22;20056;-65
2024/03/19 13:05:44;;;;;;;5.78;2.70;;;17.80;79.90;;;;;;6308774;22;20035;-64
2024/03/19 13:08:10;;;;;;;9.18;3.35;;;17.90;78.80;;;;;;6308786;22;19999;-65
2024/03/19 13:10:36;;;;;;;7.25;3.45;;;17.90;79.50;;;;;;6308463;22;19996;-65
2024/03/19 13:13:01;;;;;;;5.97;2.50;;;17.90;77.40;;;;;;6308644;22;20011;-64
2024/03/19 13:15:27;;;;;;;5.68;2.60;;;17.90;77.70;;;;;;6308475;22;20003;-65
2024/03/19 13:17:53;;;;;;;3.53;2.30;;;18.00;78.70;;;;;;6307995;22;20050;-65
2024/03/19 13:20:19;;;;;;;4.10;2.63;;;18.00;75.50;;;;;;6308456;22;20006;-65
2024/03/19 13:22:45;;;;;;;4.63;3.10;;;18.00;73.10;;;;;;6308111;22;20007;-65
2024/03/19 13:25:10;;;;;;;4.93;2.75;;;18.00;74.90;;;;;;6307875;22;20002;-65
2024/03/19 13:27:37;;;;;;;4.07;2.78;;;17.90;77.60;;;;;;6308382;22;20003;-66
2024/03/19 13:30:05;;;;;;;8.48;2.65;;;17.80;74.20;;;;;;6307896;22;20010;-66
2024/03/19 13:32:31;;;;;;;3.92;2.60;;;17.80;75.20;;;;;;6280952;22;20310;-65
2024/03/19 13:34:57;;;;;;;3.97;2.60;;;17.70;73.20;;;;;;6308360;22;20001;-64
2024/03/19 13:37:22;;;;;;;2.97;2.20;;;17.70;73.30;;;;;;6308242;22;20061;-64
2024/03/19 13:39:48;;;;;;;3.40;2.30;;;17.50;73.40;;;;;;6308254;22;20003;-63
2024/03/19 13:42:15;;;;;;;7.63;3.63;;;17.50;73.00;;;;;;6308204;22;20018;-63
2024/03/19 13:44:41;;;;;;;5.25;2.58;;;17.40;72.80;;;;;;6307976;22;20003;-64
2024/03/19 13:47:07;;;;;;;8.68;3.03;;;17.30;73.40;;;;;;6308016;22;19999;-63
2024/03/19 13:49:34;;;;;;;5.30;2.95;;;17.30;73.10;;;;;;6308416;22;20030;-64
2024/03/19 13:52:00;;;;;;;7.55;3.20;;;17.20;73.50;;;;;;6280654;22;20389;-64
2024/03/19 13:54:28;;;;;;;8.88;2.72;;;17.10;74.10;;;;;;6308122;22;20002;-64
2024/03/19 13:56:54;;;;;;;11.80;3.08;;;17.00;73.90;;;;;;6308253;22;20008;-64
2024/03/19 13:59:20;;;;;;;4.90;2.88;;;17.00;73.90;;;;;;6307766;22;20006;-64
2024/03/19 14:01:49;;;;;;;6.30;2.70;;;16.90;74.20;;;;;;6307738;22;20003;-65
2024/03/19 14:04:15;;;;;;;7.03;3.58;;;16.90;73.90;;;;;;6308349;22;20038;-64
2024/03/19 14:06:41;;;;;;;4.75;2.50;;;16.90;74.10;;;;;;6307193;22;20337;-65
2024/03/19 14:09:10;;;;;;;7.30;3.13;;;16.90;75.10;;;;;;6308839;22;19999;-64
2024/03/19 14:11:36;;;;;;;4.78;2.60;;;16.90;74.80;;;;;;6308763;22;20007;-64
2024/03/19 14:14:07;;;;;;;5.30;2.63;;;16.90;74.40;;;;;;6308340;22;20325;-64
2024/03/19 14:17:30;;;;;;;4.55;2.60;;;17.00;75.40;;;;;;6308013;22;20003;-64
2024/03/19 14:34:22;;;;;;;4.78;2.85;;;17.30;72.10;;;;;;6154058;23;20012;-64
2024/03/19 14:37:16;;;;;;;7.80;2.75;;;17.30;72.70;;;;;;6198305;22;20387;-64
2024/03/19 14:39:50;;;;;;;4.35;2.85;;;17.30;73.20;;;;;;6133186;23;20012;-64
2024/03/19 14:42:16;;;;;;;4.45;2.92;;;17.30;72.50;;;;;;6268194;22;20026;-64
2024/03/19 14:44:43;;;;;;;9.27;2.90;;;17.40;71.10;;;;;;6276554;22;20322;-64
2024/03/19 14:47:09;;;;;;;5.68;2.58;;;17.30;71.60;;;;;;6276571;22;20011;-64
2024/03/19 14:49:34;;;;;;;5.38;2.90;;;17.30;72.00;;;;;;6276753;22;20007;-64
2024/03/19 14:52:00;;;;;;;4.88;2.53;;;17.30;72.50;;;;;;6276465;22;20079;-64
2024/03/19 14:54:26;;;;;;;4.20;2.45;;;17.20;70.40;;;;;;6276480;22;20010;-64
2024/03/19 14:56:57;;;;;;;3.45;2.30;;;17.20;70.90;;;;;;6276293;22;20406;-64
2024/03/19 14:59:23;;;;;;;3.55;2.60;;;17.10;70.30;;;;;;6276188;22;20004;-64
2024/03/19 15:01:49;;;;;;;4.38;2.63;;;17.00;70.10;;;;;;6276550;22;20303;-64
2024/03/19 15:04:16;;;;;;;9.68;2.80;;;17.00;70.70;;;;;;6276640;22;20437;-64
2024/03/19 15:06:42;;;;;;;4.85;2.75;;;16.90;70.50;;;;;;6276499;22;20005;-64
2024/03/19 15:09:11;;;;;;;11.13;2.80;;;16.80;71.50;;;;;;6277033;22;20563;-64